createdAt,value
2022-11-04T00:02:18.136Z,6.43
2022-11-04T00:04:44.828Z,7.20
2022-11-04T00:07:31.447Z,6.50
2022-11-04T00:09:58.120Z,7.03
2022-11-04T00:12:24.881Z,7.73
2022-11-04T00:14:51.557Z,6.50
2022-11-04T00:17:24.084Z,6.20
2022-11-04T00:20:13.949Z,9.13
2022-11-04T00:23:00.828Z,7.90
2022-11-04T00:25:46.506Z,7.10
2022-11-04T00:28:35.817Z,6.60
2022-11-04T00:31:31.646Z,6.80
2022-11-04T00:33:58.862Z,11.00
2022-11-04T00:36:26.356Z,7.37
2022-11-04T00:38:53.756Z,7.30
2022-11-04T00:41:26.686Z,7.43
2022-11-04T00:43:59.081Z,7.40
2022-11-04T00:46:26.990Z,6.77
2022-11-04T00:48:53.938Z,8.00
2022-11-04T00:51:21.592Z,5.73
2022-11-04T00:53:48.947Z,6.87
2022-11-04T00:56:15.618Z,6.60
2022-11-04T00:58:42.514Z,7.23
2022-11-04T01:01:17.891Z,7.40
2022-11-04T01:03:46.412Z,6.80
2022-11-04T01:06:13.023Z,6.83
2022-11-04T01:08:40.406Z,8.07
2022-11-04T01:11:09.407Z,8.33
2022-11-04T01:13:36.991Z,7.27
2022-11-04T01:16:11.865Z,8.70
2022-11-04T01:18:41.625Z,7.33
2022-11-04T01:21:10.705Z,7.23
2022-11-04T01:23:37.823Z,7.87
2022-11-04T01:26:10.033Z,9.43
2022-11-04T01:28:36.741Z,9.63
2022-11-04T01:31:10.946Z,8.80
2022-11-04T01:33:38.594Z,9.17
2022-11-04T01:36:07.775Z,8.23
2022-11-04T01:38:34.934Z,8.20
2022-11-04T01:41:02.098Z,10.03
2022-11-04T01:43:49.871Z,7.97
2022-11-04T01:46:50.696Z,9.53
2022-11-04T01:49:23.307Z,10.20
2022-11-04T01:51:53.577Z,10.43
2022-11-04T01:54:21.181Z,9.53
2022-11-04T01:56:49.094Z,8.40
2022-11-04T01:59:25.670Z,8.70
2022-11-04T02:01:52.590Z,8.50
2022-11-04T02:04:26.791Z,9.47
2022-11-04T02:06:59.933Z,8.73
2022-11-04T02:09:32.475Z,10.80
2022-11-04T02:12:17.748Z,14.70
2022-11-04T02:14:47.979Z,13.37
2022-11-04T02:17:17.755Z,10.53
2022-11-04T02:19:53.406Z,10.80
2022-11-04T02:22:48.071Z,9.30
2022-11-04T02:25:39.206Z,10.87
2022-11-04T02:28:49.072Z,8.37
2022-11-04T02:31:52.160Z,8.60
2022-11-04T02:34:29.254Z,8.70
2022-11-04T02:37:09.291Z,8.70
2022-11-04T02:39:54.005Z,7.73
2022-11-04T02:42:33.107Z,9.63
2022-11-04T02:45:07.643Z,8.43
2022-11-04T02:47:41.936Z,8.83
2022-11-04T02:50:15.267Z,8.00
2022-11-04T02:52:57.928Z,7.40
2022-11-04T02:55:34.453Z,9.47
2022-11-04T02:58:04.922Z,8.80
2022-11-04T03:00:33.313Z,8.90
2022-11-04T03:03:07.260Z,9.97
2022-11-04T03:05:37.414Z,9.03
2022-11-04T03:08:28.378Z,8.40
2022-11-04T03:11:06.064Z,8.17
2022-11-04T03:13:39.865Z,9.17
2022-11-04T03:16:15.261Z,9.10
2022-11-04T03:19:01.464Z,8.63
2022-11-04T03:21:32.807Z,9.60
2022-11-04T03:24:00.448Z,8.97
2022-11-04T03:26:33.802Z,8.80
2022-11-04T03:29:18.709Z,9.10
2022-11-04T03:31:48.053Z,8.90
2022-11-04T03:34:14.832Z,9.00
2022-11-04T03:36:41.476Z,7.33
2022-11-04T03:39:08.178Z,7.57
2022-11-04T03:41:42.716Z,8.20
2022-11-04T03:44:09.501Z,6.30
2022-11-04T03:46:36.131Z,6.83
2022-11-04T03:49:03.303Z,6.20
2022-11-04T03:51:29.962Z,6.10
2022-11-04T03:53:57.989Z,6.00
2022-11-04T03:56:46.926Z,4.47
2022-11-04T03:59:44.385Z,4.60
2022-11-04T04:02:19.610Z,4.53
2022-11-04T04:05:01.920Z,4.00
2022-11-04T04:07:42.722Z,3.43
2022-11-04T04:10:34.988Z,3.53
2022-11-04T04:13:09.021Z,3.70
2022-11-04T04:15:46.088Z,3.37
2022-11-04T04:18:17.045Z,3.10
2022-11-04T04:20:47.934Z,3.80
2022-11-04T04:23:42.881Z,3.90
2022-11-04T04:26:30.825Z,5.37
2022-11-04T04:28:59.263Z,3.87
2022-11-04T04:31:46.974Z,3.87
2022-11-04T04:34:13.690Z,4.43
2022-11-04T04:36:54.380Z,4.73
2022-11-04T04:39:44.038Z,3.73
2022-11-04T04:42:29.678Z,3.47
2022-11-04T04:45:03.561Z,3.10
2022-11-04T04:47:43.073Z,3.20
2022-11-04T04:50:13.079Z,3.30
2022-11-04T04:52:44.947Z,3.07
2022-11-04T04:55:12.509Z,3.30
2022-11-04T04:57:39.202Z,3.20
2022-11-04T05:00:08.940Z,2.60
2022-11-04T05:02:35.810Z,2.77
2022-11-04T05:05:02.723Z,2.30
2022-11-04T05:07:29.786Z,3.27
2022-11-04T05:09:56.518Z,3.73
2022-11-04T05:12:23.191Z,3.80
2022-11-04T05:14:49.928Z,3.50
2022-11-04T05:17:16.579Z,2.93
2022-11-04T05:19:43.174Z,3.40
2022-11-04T05:22:09.844Z,4.00
2022-11-04T05:24:36.413Z,3.30
2022-11-04T05:27:03.173Z,3.43
2022-11-04T05:29:29.886Z,3.73
2022-11-04T05:31:57.050Z,3.73
2022-11-04T05:34:23.734Z,4.70
2022-11-04T05:36:50.373Z,5.37
2022-11-04T05:39:17.224Z,4.97
2022-11-04T05:41:43.840Z,4.47
2022-11-04T05:44:10.773Z,4.40
2022-11-04T05:46:37.543Z,3.20
2022-11-04T05:49:04.906Z,3.83
2022-11-04T05:51:32.436Z,4.20
2022-11-04T05:53:59.350Z,4.23
2022-11-04T05:56:26.013Z,3.47
2022-11-04T05:58:52.692Z,4.37
2022-11-04T06:01:37.301Z,4.17
2022-11-04T06:04:05.810Z,6.13
2022-11-04T06:06:35.884Z,5.33
2022-11-04T06:09:03.361Z,5.50
2022-11-04T06:11:30.759Z,5.17
2022-11-04T06:13:58.182Z,4.90
2022-11-04T06:16:25.443Z,3.80
2022-11-04T06:18:52.863Z,3.87
2022-11-04T06:21:25.413Z,3.90
2022-11-04T06:23:54.097Z,4.50
2022-11-04T06:26:23.864Z,4.23
2022-11-04T06:28:53.796Z,4.40
2022-11-04T06:31:21.225Z,3.47
2022-11-04T06:33:48.006Z,3.97
2022-11-04T06:36:15.769Z,3.90
2022-11-04T06:38:42.864Z,5.57
2022-11-04T06:41:13.718Z,5.57
2022-11-04T06:43:40.709Z,4.90
2022-11-04T06:46:31.764Z,5.10
2022-11-04T06:48:58.467Z,3.07
2022-11-04T06:51:25.749Z,3.60
2022-11-04T06:53:52.499Z,3.00
2022-11-04T06:56:19.150Z,3.70
2022-11-04T06:58:53.979Z,2.67
2022-11-04T07:01:22.634Z,3.03
2022-11-04T07:03:56.205Z,3.20
2022-11-04T07:06:23.095Z,3.20
2022-11-04T07:08:51.633Z,3.50
2022-11-04T07:11:21.160Z,2.93
2022-11-04T07:13:49.003Z,2.77
2022-11-04T07:16:16.723Z,2.57
2022-11-04T07:18:43.452Z,2.27
2022-11-04T07:21:10.685Z,2.80
2022-11-04T07:23:37.575Z,2.13
2022-11-04T07:26:07.287Z,3.90
2022-11-04T07:28:35.208Z,2.70
2022-11-04T07:31:04.169Z,3.10
2022-11-04T07:33:32.761Z,3.60
2022-11-04T07:36:03.171Z,2.70
2022-11-04T07:38:29.778Z,2.87
2022-11-04T07:40:58.219Z,2.27
2022-11-04T07:43:24.904Z,2.60
2022-11-04T07:46:03.738Z,1.80
2022-11-04T07:48:30.461Z,1.90
2022-11-04T07:50:59.695Z,2.40
2022-11-04T07:53:30.623Z,2.50
2022-11-04T07:55:57.784Z,2.40
2022-11-04T07:58:25.595Z,1.93
2022-11-04T08:00:58.203Z,2.43
2022-11-04T08:03:24.957Z,2.00
2022-11-04T08:05:59.343Z,2.07
2022-11-04T08:08:27.232Z,1.83
2022-11-04T08:11:00.504Z,2.00
2022-11-04T08:13:29.174Z,1.83
2022-11-04T08:15:56.779Z,2.23
2022-11-04T08:18:23.673Z,2.13
2022-11-04T08:20:51.959Z,2.40
2022-11-04T08:23:19.414Z,3.20
2022-11-04T08:25:46.487Z,2.23
2022-11-04T08:28:17.405Z,2.00
2022-11-04T08:30:59.477Z,2.40
2022-11-04T08:33:27.459Z,2.40
2022-11-04T08:35:56.653Z,2.90
2022-11-04T08:38:23.261Z,2.80
2022-11-04T08:40:50.040Z,2.70
2022-11-04T08:43:16.909Z,3.17
2022-11-04T08:45:46.033Z,2.57
2022-11-04T08:48:14.162Z,2.23
2022-11-04T08:50:41.069Z,2.73
2022-11-04T08:53:08.134Z,3.37
2022-11-04T08:55:35.668Z,3.30
2022-11-04T08:58:02.800Z,3.90
2022-11-04T09:00:29.619Z,3.10
2022-11-04T09:02:56.273Z,3.10
2022-11-04T09:05:23.187Z,1.97
2022-11-04T09:07:49.792Z,1.83
2022-11-04T09:10:17.307Z,1.70
2022-11-04T09:12:44.951Z,2.57
2022-11-04T09:15:12.258Z,2.53
2022-11-04T09:17:38.885Z,2.37
2022-11-04T09:20:06.460Z,2.40
2022-11-04T09:22:33.246Z,2.67
2022-11-04T09:24:59.893Z,3.70
2022-11-04T09:27:26.532Z,3.70
2022-11-04T09:29:53.199Z,4.47
2022-11-04T09:32:19.927Z,4.63
2022-11-04T09:34:46.711Z,4.20
2022-11-04T09:37:13.821Z,3.90
2022-11-04T09:39:40.476Z,4.33
2022-11-04T09:42:44.977Z,3.20
2022-11-04T09:45:23.112Z,3.70
2022-11-04T09:47:52.628Z,2.60
2022-11-04T09:50:25.190Z,3.20
2022-11-04T09:53:00.254Z,2.70
2022-11-04T09:55:39.267Z,2.90
2022-11-04T09:58:12.324Z,2.40
2022-11-04T10:00:40.077Z,10.40
2022-11-04T10:03:18.811Z,15.87
2022-11-04T10:05:56.772Z,4.10
2022-11-04T10:08:37.895Z,6.80
2022-11-04T10:11:26.609Z,3.27
2022-11-04T10:14:21.326Z,2.30
2022-11-04T10:16:56.966Z,3.43
2022-11-04T10:19:57.314Z,2.70
2022-11-04T10:22:52.760Z,2.90
2022-11-04T10:25:28.558Z,2.60
2022-11-04T10:27:55.310Z,1.80
2022-11-04T10:30:25.079Z,2.00
2022-11-04T10:33:27.832Z,2.30
2022-11-04T10:35:59.990Z,2.10
2022-11-04T10:38:33.602Z,2.97
2022-11-04T10:41:05.976Z,2.07
2022-11-04T10:43:39.640Z,1.97
2022-11-04T10:46:38.841Z,2.00
2022-11-04T10:50:06.854Z,1.77
2022-11-04T10:52:35.371Z,1.33
2022-11-04T10:55:02.141Z,1.70
2022-11-04T10:57:30.921Z,1.83
2022-11-04T11:00:01.690Z,2.07
2022-11-04T11:02:37.565Z,1.90
2022-11-04T11:05:15.062Z,1.13
2022-11-04T11:07:42.258Z,1.50
2022-11-04T11:10:24.172Z,1.67
2022-11-04T11:12:52.971Z,1.53
2022-11-04T11:15:22.594Z,1.40
2022-11-04T11:17:50.384Z,1.40
2022-11-04T11:20:25.445Z,1.80
2022-11-04T11:22:52.507Z,1.67
2022-11-04T11:25:35.752Z,1.20
2022-11-04T11:28:09.274Z,1.93
2022-11-04T11:30:44.051Z,1.43
2022-11-04T11:33:28.201Z,2.17
2022-11-04T11:35:58.911Z,1.73
2022-11-04T11:38:31.674Z,1.50
2022-11-04T11:41:28.462Z,1.77
2022-11-04T11:43:56.016Z,1.63
2022-11-04T11:46:29.119Z,2.07
2022-11-04T11:49:01.299Z,1.57
2022-11-04T11:51:32.875Z,1.47
2022-11-04T11:54:33.680Z,1.50
2022-11-04T11:57:15.063Z,1.63
2022-11-04T12:03:03.175Z,1.50
2022-11-04T12:11:38.698Z,2.00
2022-11-04T12:14:18.893Z,1.90
2022-11-04T12:17:23.294Z,1.83
2022-11-04T12:19:53.123Z,1.23
2022-11-04T12:22:47.696Z,1.50
2022-11-04T12:25:17.192Z,1.20
2022-11-04T12:27:55.984Z,1.30
2022-11-04T12:30:32.271Z,1.80
2022-11-04T12:33:14.483Z,1.47
2022-11-04T12:35:44.038Z,1.10
2022-11-04T12:38:36.322Z,1.50
2022-11-04T12:42:06.442Z,1.33
2022-11-04T12:44:36.750Z,1.93
2022-11-04T12:47:12.386Z,1.97
2022-11-04T12:49:54.399Z,1.80
2022-11-04T12:52:39.014Z,1.67
2022-11-04T12:55:24.075Z,1.60
2022-11-04T12:57:53.838Z,1.60
2022-11-04T13:00:24.744Z,1.73
2022-11-04T13:03:02.366Z,1.67
2022-11-04T13:05:46.384Z,2.23
2022-11-04T13:08:27.346Z,1.70
2022-11-04T13:11:06.177Z,2.30
2022-11-04T13:13:39.003Z,2.00
2022-11-04T13:16:12.350Z,1.77
2022-11-04T13:18:41.278Z,2.33
2022-11-04T13:21:14.305Z,2.13
2022-11-04T13:23:51.363Z,1.73
2022-11-04T13:26:18.661Z,1.97
2022-11-04T13:28:50.374Z,2.00
2022-11-04T13:31:32.224Z,2.40
2022-11-04T13:34:02.426Z,1.77
2022-11-04T13:36:47.382Z,2.17
2022-11-04T13:39:17.744Z,1.87
2022-11-04T13:41:56.801Z,2.00
2022-11-04T13:44:31.037Z,1.67
2022-11-04T13:47:01.590Z,2.00
2022-11-04T13:49:34.459Z,2.10
2022-11-04T13:52:13.531Z,2.10
2022-11-04T13:54:55.378Z,2.70
2022-11-04T13:57:25.564Z,2.10
2022-11-04T14:00:11.240Z,2.13
2022-11-04T14:02:42.375Z,1.80
2022-11-04T14:05:27.515Z,1.87
2022-11-04T14:08:03.438Z,2.40
2022-11-04T14:10:48.500Z,2.10
2022-11-04T14:13:27.559Z,2.27
2022-11-04T14:16:01.696Z,2.10
2022-11-04T14:18:33.982Z,2.10
2022-11-04T14:21:11.490Z,2.67
2022-11-04T14:23:40.018Z,2.13
2022-11-04T14:26:12.751Z,2.67
2022-11-04T14:28:43.586Z,2.00
2022-11-04T14:31:17.446Z,1.80
2022-11-04T14:33:53.709Z,2.13
2022-11-04T14:36:20.571Z,2.20
2022-11-04T14:38:53.234Z,3.40
2022-11-04T14:41:28.934Z,2.03
2022-11-04T14:44:08.014Z,2.37
2022-11-04T14:46:44.047Z,2.70
2022-11-04T14:49:44.850Z,2.40
2022-11-04T14:52:33.389Z,1.90
2022-11-04T14:55:15.314Z,5.30
2022-11-04T14:57:44.701Z,4.47
2022-11-04T15:00:33.290Z,3.47
2022-11-04T15:06:07.539Z,4.13
2022-11-04T15:08:43.879Z,4.30
2022-11-04T15:11:16.515Z,5.93
2022-11-04T15:13:49.365Z,5.23
2022-11-04T15:16:16.013Z,6.20
2022-11-04T15:18:43.037Z,6.93
2022-11-04T15:21:10.555Z,6.80
2022-11-04T15:23:43.907Z,6.60
2022-11-04T15:26:30.060Z,5.10
2022-11-04T15:29:00.138Z,4.00
2022-11-04T15:31:32.635Z,4.77
2022-11-04T15:34:02.168Z,5.03
2022-11-04T15:36:37.037Z,7.20
2022-11-04T15:39:19.640Z,4.13
2022-11-04T15:42:06.407Z,24.33
2022-11-04T15:44:36.600Z,15.00
2022-11-04T15:47:25.011Z,8.03
2022-11-04T15:49:53.717Z,6.40
2022-11-04T15:52:24.731Z,3.80
2022-11-04T15:54:54.412Z,3.10
2022-11-04T15:57:40.231Z,4.80
2022-11-04T16:00:14.483Z,4.10
2022-11-04T16:02:50.566Z,4.13
2022-11-04T16:05:22.588Z,4.20
2022-11-04T16:07:52.342Z,5.67
2022-11-04T16:10:31.328Z,5.63
2022-11-04T16:13:03.221Z,3.77
2022-11-04T16:15:40.159Z,4.10
2022-11-04T16:18:21.177Z,8.43
2022-11-04T16:20:48.888Z,5.80
2022-11-04T16:23:19.137Z,4.87
2022-11-04T16:25:46.014Z,5.27
2022-11-04T16:28:20.600Z,5.73
2022-11-04T16:31:22.417Z,7.00
2022-11-04T16:33:50.303Z,6.63
2022-11-04T16:36:23.649Z,5.27
2022-11-04T16:39:04.803Z,5.30
2022-11-04T16:41:36.123Z,3.77
2022-11-04T16:44:04.431Z,4.50
2022-11-04T16:46:32.857Z,4.90
2022-11-04T16:48:59.776Z,5.03
2022-11-04T16:51:26.556Z,4.13
2022-11-04T16:53:54.551Z,5.40
2022-11-04T16:56:24.563Z,5.93
2022-11-04T16:58:52.194Z,6.50
2022-11-04T17:01:19.375Z,6.10
2022-11-04T17:03:46.248Z,6.63
2022-11-04T17:06:15.089Z,5.77
2022-11-04T17:08:42.590Z,5.47
2022-11-04T17:11:12.678Z,5.13
2022-11-04T17:13:39.466Z,4.53
2022-11-04T17:16:07.614Z,4.70
2022-11-04T17:18:35.306Z,4.90
2022-11-04T17:21:06.320Z,4.70
2022-11-04T17:23:33.121Z,6.20
2022-11-04T17:25:59.834Z,5.43
2022-11-04T17:28:26.977Z,6.90
2022-11-04T17:30:53.902Z,6.90
2022-11-04T17:33:20.828Z,22.90
2022-11-04T17:35:49.773Z,9.97
2022-11-04T17:38:17.728Z,9.77
2022-11-04T17:41:03.583Z,10.67
2022-11-04T17:43:48.955Z,10.30
2022-11-04T17:46:34.985Z,12.67
2022-11-04T17:49:12.720Z,14.30
2022-11-04T17:51:41.260Z,20.17
2022-11-04T17:54:08.645Z,20.73
2022-11-04T17:56:35.838Z,17.77
2022-11-04T17:59:04.034Z,16.70
2022-11-04T18:01:32.880Z,14.67
2022-11-04T18:03:59.881Z,13.43
2022-11-04T18:06:26.787Z,13.23
2022-11-04T18:08:54.823Z,15.60
2022-11-04T18:11:41.518Z,17.97
2022-11-04T18:14:13.742Z,17.37
2022-11-04T18:16:44.777Z,23.53
2022-11-04T18:19:12.069Z,21.07
2022-11-04T18:21:38.756Z,14.97
2022-11-04T18:24:25.869Z,10.40
2022-11-04T18:26:52.875Z,8.43
2022-11-04T18:29:20.279Z,6.30
2022-11-04T18:31:49.420Z,6.97
2022-11-04T18:34:19.222Z,5.77
2022-11-04T18:36:47.972Z,7.40
2022-11-04T18:39:16.397Z,8.13
2022-11-04T18:41:43.542Z,9.03
2022-11-04T18:44:16.095Z,9.33
2022-11-04T18:46:43.447Z,11.47
2022-11-04T18:49:11.311Z,10.37
2022-11-04T18:51:37.972Z,12.10
2022-11-04T18:54:05.666Z,13.27
2022-11-04T18:56:33.287Z,11.40
2022-11-04T18:59:00.358Z,12.93
2022-11-04T19:01:30.326Z,13.60
2022-11-04T19:03:57.693Z,17.57
2022-11-04T19:06:27.629Z,12.03
2022-11-04T19:09:04.982Z,11.13
2022-11-04T19:11:42.812Z,9.80
2022-11-04T19:14:14.360Z,10.70
2022-11-04T19:16:42.796Z,10.77
2022-11-04T19:19:13.568Z,10.70
2022-11-04T19:21:40.160Z,10.70
2022-11-04T19:24:08.159Z,11.20
2022-11-04T19:26:36.150Z,10.33
2022-11-04T19:29:06.536Z,7.73
2022-11-04T19:31:33.378Z,5.50
2022-11-04T19:34:04.892Z,6.47
2022-11-04T19:36:33.461Z,6.10
2022-11-04T19:39:00.817Z,6.00
2022-11-04T19:41:46.647Z,5.53
2022-11-04T19:44:15.864Z,4.73
2022-11-04T19:46:43.264Z,5.23
2022-11-04T19:49:10.989Z,5.53
2022-11-04T19:51:37.764Z,5.47
2022-11-04T19:54:05.455Z,5.77
2022-11-04T19:56:33.733Z,4.83
2022-11-04T19:59:05.787Z,4.47
2022-11-04T20:01:34.477Z,6.23
2022-11-04T20:04:05.082Z,5.40
2022-11-04T20:06:33.134Z,6.23
2022-11-04T20:09:08.600Z,5.60
2022-11-04T20:11:56.738Z,5.03
2022-11-04T20:14:24.787Z,3.90
2022-11-04T20:16:52.006Z,5.33
2022-11-04T20:19:22.633Z,5.70
2022-11-04T20:21:50.014Z,7.83
2022-11-04T20:24:17.004Z,7.60
2022-11-04T20:26:44.206Z,7.33
2022-11-04T20:29:11.514Z,6.83
2022-11-04T20:31:39.596Z,7.80
2022-11-04T20:34:08.392Z,8.27
2022-11-04T20:36:36.734Z,7.60
2022-11-04T20:39:09.856Z,7.90
2022-11-04T20:41:36.518Z,6.60
2022-11-04T20:44:04.210Z,5.63
2022-11-04T20:46:34.094Z,7.57
2022-11-04T20:49:03.104Z,10.77
2022-11-04T20:51:32.264Z,9.17
2022-11-04T20:54:02.052Z,7.70
2022-11-04T20:56:31.389Z,7.53
2022-11-04T20:59:00.159Z,5.70
2022-11-04T21:01:33.022Z,6.10
2022-11-04T21:04:15.211Z,6.50
2022-11-04T21:06:42.480Z,8.10
2022-11-04T21:09:11.500Z,8.63
2022-11-04T21:11:39.667Z,5.40
2022-11-04T21:14:12.920Z,5.70
2022-11-04T21:16:40.020Z,5.10
2022-11-04T21:19:07.709Z,5.87
2022-11-04T21:21:35.037Z,6.40
2022-11-04T21:24:04.818Z,5.40
2022-11-04T21:26:34.211Z,5.57
2022-11-04T21:29:06.620Z,5.60
2022-11-04T21:31:36.002Z,5.57
2022-11-04T21:34:03.688Z,5.60
2022-11-04T21:36:31.179Z,4.40
2022-11-04T21:38:59.175Z,5.53
2022-11-04T21:41:28.659Z,5.30
2022-11-04T21:44:00.731Z,5.77
2022-11-04T21:46:30.445Z,3.90
2022-11-04T21:48:57.111Z,4.37
2022-11-04T21:51:26.429Z,3.83
2022-11-04T21:53:53.175Z,5.60
2022-11-04T21:56:23.178Z,4.43
2022-11-04T21:58:51.622Z,6.37
2022-11-04T22:01:20.321Z,7.27
2022-11-04T22:03:54.617Z,7.20
2022-11-04T22:06:21.757Z,8.77
2022-11-04T22:08:54.112Z,8.03
2022-11-04T22:11:26.961Z,6.37
2022-11-04T22:13:58.254Z,5.40
2022-11-04T22:16:27.733Z,6.63
2022-11-04T22:18:56.404Z,7.17
2022-11-04T22:21:24.811Z,6.43
2022-11-04T22:23:52.400Z,7.67
2022-11-04T22:26:28.419Z,9.30
2022-11-04T22:28:56.239Z,10.37
2022-11-04T22:31:25.978Z,8.33
2022-11-04T22:33:53.218Z,9.23
2022-11-04T22:36:23.460Z,8.50
2022-11-04T22:38:50.179Z,7.83
2022-11-04T22:41:22.839Z,7.07
2022-11-04T22:43:49.515Z,6.57
2022-11-04T22:46:24.530Z,5.57
2022-11-04T22:48:51.446Z,6.07
2022-11-04T22:51:18.322Z,7.17
2022-11-04T22:53:45.562Z,6.77
2022-11-04T22:56:14.319Z,6.30
2022-11-04T22:58:41.209Z,6.30
2022-11-04T23:01:10.716Z,5.57
2022-11-04T23:03:37.919Z,5.27
2022-11-04T23:06:08.992Z,5.30
2022-11-04T23:08:37.094Z,8.73
2022-11-04T23:11:27.943Z,9.07
2022-11-04T23:14:20.619Z,14.00
2022-11-04T23:17:12.906Z,12.87
2022-11-04T23:19:39.855Z,12.70
2022-11-04T23:22:26.031Z,12.70
2022-11-04T23:25:05.801Z,11.87
2022-11-04T23:27:55.567Z,12.20
2022-11-04T23:30:24.147Z,12.63
2022-11-04T23:33:16.828Z,11.17
2022-11-04T23:36:07.672Z,11.90
2022-11-04T23:38:35.423Z,11.27
2022-11-04T23:41:24.448Z,12.80
2022-11-04T23:43:51.092Z,12.90
2022-11-04T23:46:42.199Z,13.27
2022-11-04T23:49:12.740Z,13.80
2022-11-04T23:51:58.064Z,13.13
2022-11-04T23:54:43.984Z,12.27
2022-11-04T23:57:35.914Z,13.30
